Terminal Aerodrome Forecast
Issued by NWS

Current Version | Previous Version | Text Only | Print | Product List | Glossary On
Versions: 1 2 3 4 5 6 7 8 9 10 11 12
544
FTUS42 TJSJ 130539
TAFJSJ
TAF
TJSJ 130539Z 1306/1406 00000KT P6SM FEW030
     FM131400 08012KT P6SM FEW025 SCT050
     FM132200 10006KT P6SM SCT030=

USA.gov is the U.S. government's official web portal to all federal, state and local government web resources and services.